Terminal Aerodrome Forecast
Issued by NWS Jackson, KY

Home | Current Version | Previous Version | Text Only | Print | Product List | Glossary On
Versions: 1 2 3 4 5 6 7 8 9 10 11 12
693
FTUS43 KJKL 210535
TAFJKL
TAF
KJKL 210535Z 2106/2206 VRB03KT P6SM SKC
     FM210800 00000KT 3SM BR SKC
      TEMPO 2110/2112 1/2SM FG SCT002
     FM211300 VRB03KT P6SM SKC
     FM211700 VRB03KT P6SM SCT040=

USA.gov is the U.S. government's official web portal to all federal, state and local government web resources and services.